Time;durP1;ratioP1;P1;durP2;ratioP2;P2;SDS_P1;SDS_P2;PMS_P1;PMS_P2;Temp;Humidity;BMP_temperature;BMP_pressure;BME280_temperature;BME280_humidity;BME280_pressure;Samples;Min_cycle;Max_cycle;Signal;HPM_P1;HPM_P2
2021/08/18 00:02:25;;;;;;;5.93;4.32;;;;;;;;;;4864030;29;20112;-96
2021/08/18 00:04:52;;;;;;;8.45;5.00;;;;;;;;;;4860107;29;20143;-96
2021/08/18 00:07:19;;;;;;;6.88;4.82;;;;;;;;;;4851816;29;20108;-96
2021/08/18 00:09:46;;;;;;;7.78;4.53;;;;;;;;;;4864516;29;20151;-96
2021/08/18 00:12:12;;;;;;;7.70;4.60;;;;;;;;;;4838668;29;20057;-96
2021/08/18 00:14:41;;;;;;;9.32;5.10;;;;;;;;;;4874682;29;20064;-96
2021/08/18 00:17:07;;;;;;;9.10;4.80;;;;;;;;;;4869390;29;20056;-96
2021/08/18 00:19:34;;;;;;;8.45;5.18;;;;;;;;;;4853818;29;20093;-96
2021/08/18 00:22:00;;;;;;;6.13;4.57;;;;;;;;;;4848971;29;20121;-95
2021/08/18 00:24:27;;;;;;;10.48;5.20;;;;;;;;;;4856399;29;20120;-96
2021/08/18 00:26:53;;;;;;;11.23;5.57;;;;;;;;;;4852093;29;20060;-96
2021/08/18 00:29:22;;;;;;;8.50;5.22;;;;;;;;;;4835600;29;20506;-95
2021/08/18 00:31:50;;;;;;;8.48;5.07;;;;;;;;;;4850047;29;20057;-96
2021/08/18 00:34:16;;;;;;;9.65;4.80;;;;;;;;;;4839592;29;20058;-95
2021/08/18 00:36:43;;;;;;;6.18;4.63;;;;;;;;;;4865827;29;20132;-96
2021/08/18 00:39:09;;;;;;;9.88;5.38;;;;;;;;;;4851579;29;20120;-96
2021/08/18 00:41:41;;;;;;;8.48;5.63;;;;;;;;;;4854846;29;20140;-96
2021/08/18 00:44:08;;;;;;;9.05;4.97;;;;;;;;;;4867292;29;20053;-96
2021/08/18 00:46:40;;;;;;;8.55;4.80;;;;;;;;;;4842765;29;20083;-96
2021/08/18 00:49:07;;;;;;;7.07;4.47;;;;;;;;;;4866984;29;20072;-96
2021/08/18 00:51:33;;;;;;;8.25;5.20;;;;;;;;;;4876120;29;20053;-96
2021/08/18 00:54:00;;;;;;;8.65;4.60;;;;;;;;;;4873902;29;20483;-95
2021/08/18 00:56:26;;;;;;;7.75;5.07;;;;;;;;;;4860456;29;20073;-96
2021/08/18 00:58:52;;;;;;;8.43;5.03;;;;;;;;;;4860209;29;20057;-95
2021/08/18 01:01:21;;;;;;;9.25;5.25;;;;;;;;;;4877419;29;20132;-96
2021/08/18 01:03:48;;;;;;;8.55;5.03;;;;;;;;;;4868745;29;20063;-95
2021/08/18 01:06:14;;;;;;;9.13;5.05;;;;;;;;;;4870957;29;20143;-96
2021/08/18 01:08:41;;;;;;;8.88;5.03;;;;;;;;;;4850840;29;20152;-96
2021/08/18 01:11:07;;;;;;;9.32;5.18;;;;;;;;;;4841882;29;20108;-96
2021/08/18 01:13:36;;;;;;;9.90;5.57;;;;;;;;;;4856612;29;20099;-96
2021/08/18 01:16:05;;;;;;;9.30;5.57;;;;;;;;;;4841813;29;20106;-96
2021/08/18 01:18:31;;;;;;;9.63;5.43;;;;;;;;;;4880645;29;20108;-96
2021/08/18 01:20:58;;;;;;;10.88;5.60;;;;;;;;;;4873828;29;20049;-96
2021/08/18 01:23:24;;;;;;;7.80;5.40;;;;;;;;;;4864876;29;20060;-96
2021/08/18 01:25:55;;;;;;;9.77;5.40;;;;;;;;;;4875331;29;20073;-96
2021/08/18 01:28:26;;;;;;;10.57;5.40;;;;;;;;;;4857628;29;20065;-96
2021/08/18 01:30:52;;;;;;;7.88;5.10;;;;;;;;;;4865505;29;20049;-96
2021/08/18 01:33:21;;;;;;;8.80;5.28;;;;;;;;;;4850581;29;20052;-96
2021/08/18 01:35:49;;;;;;;11.48;5.60;;;;;;;;;;4863533;29;20061;-96
2021/08/18 01:38:17;;;;;;;11.00;6.30;;;;;;;;;;4867547;29;20056;-96
2021/08/18 01:40:46;;;;;;;15.25;7.85;;;;;;;;;;4883020;29;20048;-96
2021/08/18 01:43:17;;;;;;;9.30;5.53;;;;;;;;;;4860711;29;20053;-96
2021/08/18 01:45:44;;;;;;;15.73;8.05;;;;;;;;;;4871441;29;20057;-96
2021/08/18 01:48:12;;;;;;;19.10;9.93;;;;;;;;;;4864372;29;20159;-96
2021/08/18 01:50:41;;;;;;;15.55;8.25;;;;;;;;;;4823365;29;20057;-96
2021/08/18 01:53:08;;;;;;;16.55;7.93;;;;;;;;;;4846622;29;20067;-96
2021/08/18 01:55:38;;;;;;;16.60;8.48;;;;;;;;;;4871035;29;20049;-96
2021/08/18 01:58:04;;;;;;;10.23;6.53;;;;;;;;;;4866919;29;20064;-96
2021/08/18 02:00:31;;;;;;;10.63;6.18;;;;;;;;;;4866258;29;20150;-96
2021/08/18 02:02:57;;;;;;;10.20;5.90;;;;;;;;;;4880922;29;20056;-96
2021/08/18 02:05:27;;;;;;;9.90;5.47;;;;;;;;;;4878172;29;20049;-96
2021/08/18 02:07:54;;;;;;;8.93;5.85;;;;;;;;;;4864005;29;20080;-95
2021/08/18 02:10:23;;;;;;;8.45;5.00;;;;;;;;;;4862204;29;20053;-95
2021/08/18 02:12:52;;;;;;;11.38;5.60;;;;;;;;;;4857759;29;20111;-96
2021/08/18 02:15:28;;;;;;;8.80;5.07;;;;;;;;;;4851568;29;20053;-96
2021/08/18 02:17:54;;;;;;;8.82;5.47;;;;;;;;;;4854037;29;20097;-96
2021/08/18 02:20:25;;;;;;;9.55;5.30;;;;;;;;;;4857164;29;20473;-96
2021/08/18 02:22:51;;;;;;;8.23;4.70;;;;;;;;;;4843909;29;20055;-96
2021/08/18 02:25:18;;;;;;;8.25;5.25;;;;;;;;;;4870681;29;20065;-95
2021/08/18 02:27:44;;;;;;;10.00;4.75;;;;;;;;;;4854259;29;20427;-96
2021/08/18 02:30:12;;;;;;;8.52;5.10;;;;;;;;;;4864336;29;20140;-96
2021/08/18 02:32:38;;;;;;;11.07;5.47;;;;;;;;;;4847070;29;20063;-96
2021/08/18 02:35:08;;;;;;;8.85;4.95;;;;;;;;;;4861605;29;20057;-96
2021/08/18 02:37:35;;;;;;;7.68;4.50;;;;;;;;;;4852368;29;20081;-96
2021/08/18 02:40:01;;;;;;;7.90;4.72;;;;;;;;;;4862497;29;20140;-95
2021/08/18 02:42:28;;;;;;;8.65;5.10;;;;;;;;;;4852261;29;20076;-96
2021/08/18 02:44:57;;;;;;;10.38;4.78;;;;;;;;;;4863530;29;20056;-95
2021/08/18 02:47:23;;;;;;;9.63;5.47;;;;;;;;;;4873560;29;20045;-95
2021/08/18 02:49:50;;;;;;;11.35;5.70;;;;;;;;;;4846478;29;20143;-95
2021/08/18 02:52:16;;;;;;;7.38;4.30;;;;;;;;;;4850540;29;20108;-92
2021/08/18 02:54:42;;;;;;;9.23;4.60;;;;;;;;;;4841684;29;20053;-96
2021/08/18 02:57:10;;;;;;;8.15;4.25;;;;;;;;;;4863429;29;20098;-96
2021/08/18 02:59:36;;;;;;;8.40;4.50;;;;;;;;;;4861677;29;20068;-96
2021/08/18 03:02:04;;;;;;;6.28;4.07;;;;;;;;;;4872614;29;20056;-95
2021/08/18 03:04:31;;;;;;;7.35;4.28;;;;;;;;;;4856943;29;20069;-96
2021/08/18 03:07:00;;;;;;;7.90;4.03;;;;;;;;;;4851112;29;20060;-95
2021/08/18 03:09:26;;;;;;;8.45;4.90;;;;;;;;;;4880644;29;20084;-95
2021/08/18 03:11:55;;;;;;;7.75;4.43;;;;;;;;;;4885499;29;20056;-96
2021/08/18 03:14:21;;;;;;;7.75;4.70;;;;;;;;;;4861567;29;20049;-96
2021/08/18 03:16:48;;;;;;;9.60;4.88;;;;;;;;;;4859773;29;20513;-96
2021/08/18 03:19:15;;;;;;;9.27;5.05;;;;;;;;;;4865400;29;20433;-96
2021/08/18 03:21:41;;;;;;;13.35;5.28;;;;;;;;;;4844313;29;20136;-96
2021/08/18 03:24:08;;;;;;;9.88;5.38;;;;;;;;;;4879856;29;20143;-95
2021/08/18 03:26:34;;;;;;;10.02;5.05;;;;;;;;;;4865783;29;20546;-95
2021/08/18 03:29:00;;;;;;;9.85;4.80;;;;;;;;;;4860583;29;20052;-96
2021/08/18 03:31:27;;;;;;;8.80;5.35;;;;;;;;;;4875682;29;20084;-95
2021/08/18 03:33:54;;;;;;;10.70;4.82;;;;;;;;;;4850157;29;20084;-96
2021/08/18 03:36:20;;;;;;;8.35;4.90;;;;;;;;;;4852436;29;20753;-96
2021/08/18 03:38:46;;;;;;;13.73;5.57;;;;;;;;;;4853111;29;20056;-93
2021/08/18 03:41:14;;;;;;;10.20;4.70;;;;;;;;;;4846043;29;20057;-96
2021/08/18 03:43:41;;;;;;;9.38;5.05;;;;;;;;;;4879112;29;20056;-95
2021/08/18 03:46:08;;;;;;;10.27;4.72;;;;;;;;;;4847573;29;20057;-96
2021/08/18 03:48:34;;;;;;;8.20;4.53;;;;;;;;;;4868878;29;20052;-96
2021/08/18 03:51:01;;;;;;;9.20;5.05;;;;;;;;;;4866302;29;20080;-96
2021/08/18 03:53:27;;;;;;;9.80;4.80;;;;;;;;;;4866905;29;20060;-96
2021/08/18 03:55:53;;;;;;;8.00;5.00;;;;;;;;;;4876900;29;20049;-96
2021/08/18 03:58:20;;;;;;;9.35;4.85;;;;;;;;;;4866406;29;20061;-96
2021/08/18 04:00:47;;;;;;;9.18;4.63;;;;;;;;;;4858541;29;20100;-94
2021/08/18 04:03:13;;;;;;;7.95;4.78;;;;;;;;;;4861191;29;20081;-96
2021/08/18 04:05:40;;;;;;;10.52;4.68;;;;;;;;;;4871843;29;20060;-96
2021/08/18 04:08:08;;;;;;;8.68;4.60;;;;;;;;;;4869440;29;20052;-96
2021/08/18 04:10:36;;;;;;;9.15;4.40;;;;;;;;;;4864610;29;20080;-96
2021/08/18 04:13:04;;;;;;;9.27;4.70;;;;;;;;;;4868112;29;20067;-96
2021/08/18 04:15:39;;;;;;;8.38;4.50;;;;;;;;;;4858954;29;20133;-96
2021/08/18 04:18:07;;;;;;;7.93;4.50;;;;;;;;;;4874358;29;20152;-96
2021/08/18 04:20:34;;;;;;;10.95;4.45;;;;;;;;;;4863938;29;20053;-96
2021/08/18 04:23:00;;;;;;;10.63;4.97;;;;;;;;;;4848847;29;20053;-96
2021/08/18 04:25:27;;;;;;;8.07;4.38;;;;;;;;;;4865727;29;20049;-96
2021/08/18 04:27:54;;;;;;;7.65;4.13;;;;;;;;;;4860887;29;20474;-94
2021/08/18 04:30:24;;;;;;;8.77;3.80;;;;;;;;;;4844459;29;20084;-95
2021/08/18 04:32:52;;;;;;;7.47;3.92;;;;;;;;;;4864291;29;20136;-95
2021/08/18 04:35:18;;;;;;;7.45;3.90;;;;;;;;;;4850004;29;20192;-95
2021/08/18 04:37:45;;;;;;;8.80;3.70;;;;;;;;;;4859894;29;20063;-95
2021/08/18 04:40:15;;;;;;;7.22;3.85;;;;;;;;;;4843963;29;20068;-95
2021/08/18 04:42:43;;;;;;;7.57;4.10;;;;;;;;;;4838558;29;20206;-96
2021/08/18 04:45:13;;;;;;;8.73;4.13;;;;;;;;;;4861651;29;20057;-96
2021/08/18 04:47:40;;;;;;;5.97;3.50;;;;;;;;;;4864896;29;20429;-96
2021/08/18 04:50:09;;;;;;;5.75;3.30;;;;;;;;;;4863915;29;20067;-95
2021/08/18 04:52:40;;;;;;;7.15;3.38;;;;;;;;;;4866562;29;20064;-96
2021/08/18 04:55:07;;;;;;;6.22;3.08;;;;;;;;;;4848874;29;20072;-95
2021/08/18 04:57:35;;;;;;;5.13;2.80;;;;;;;;;;4856430;29;20072;-95
2021/08/18 05:00:02;;;;;;;4.22;2.67;;;;;;;;;;4879523;29;20097;-96
2021/08/18 05:02:28;;;;;;;3.63;2.70;;;;;;;;;;4840114;29;20057;-96
2021/08/18 05:04:54;;;;;;;4.82;2.55;;;;;;;;;;4871315;29;20049;-95
2021/08/18 05:07:23;;;;;;;5.13;2.40;;;;;;;;;;4853859;29;20052;-95
2021/08/18 05:09:50;;;;;;;5.10;2.60;;;;;;;;;;4877101;29;20052;-95
2021/08/18 05:12:20;;;;;;;4.68;2.90;;;;;;;;;;4859313;29;20486;-95
2021/08/18 05:14:46;;;;;;;4.13;2.75;;;;;;;;;;4862380;29;20135;-92
2021/08/18 05:17:13;;;;;;;6.10;3.13;;;;;;;;;;4851158;29;20510;-96
2021/08/18 05:19:41;;;;;;;5.15;2.90;;;;;;;;;;4862499;29;20064;-96
2021/08/18 05:22:08;;;;;;;5.07;3.20;;;;;;;;;;4868852;29;20103;-96
2021/08/18 05:24:46;;;;;;;4.43;2.80;;;;;;;;;;4833330;29;20060;-93
2021/08/18 05:27:15;;;;;;;4.63;2.63;;;;;;;;;;4871352;29;20084;-96
2021/08/18 05:29:42;;;;;;;5.30;2.92;;;;;;;;;;4832666;29;20081;-96
2021/08/18 05:32:11;;;;;;;4.10;3.10;;;;;;;;;;4862526;29;20066;-96
2021/08/18 05:34:40;;;;;;;5.13;2.80;;;;;;;;;;4861285;29;20141;-96
2021/08/18 05:37:07;;;;;;;7.68;3.40;;;;;;;;;;4862950;29;20537;-96
2021/08/18 05:39:37;;;;;;;6.00;3.40;;;;;;;;;;4873984;29;20064;-96
2021/08/18 05:42:06;;;;;;;5.55;3.10;;;;;;;;;;4873505;29;20077;-96
2021/08/18 05:44:34;;;;;;;6.25;3.60;;;;;;;;;;4870260;29;20140;-96
2021/08/18 05:47:01;;;;;;;4.57;3.60;;;;;;;;;;4841045;29;20057;-96
2021/08/18 05:49:29;;;;;;;5.63;3.47;;;;;;;;;;4878042;29;20053;-96
2021/08/18 05:51:57;;;;;;;3.97;3.10;;;;;;;;;;4889752;29;20112;-96
2021/08/18 05:54:28;;;;;;;4.50;3.15;;;;;;;;;;4849322;29;20057;-96
2021/08/18 05:56:54;;;;;;;7.30;4.45;;;;;;;;;;4860862;29;20406;-96
2021/08/18 05:59:21;;;;;;;4.40;3.30;;;;;;;;;;4847350;29;20052;-96
2021/08/18 06:01:48;;;;;;;4.57;3.05;;;;;;;;;;4862164;29;20084;-96
2021/08/18 06:04:14;;;;;;;4.65;3.03;;;;;;;;;;4850335;29;20476;-96
2021/08/18 06:06:45;;;;;;;4.88;3.40;;;;;;;;;;4873383;29;20513;-96
2021/08/18 06:09:39;;;;;;;6.15;3.30;;;;;;;;;;4844109;29;20056;-96
2021/08/18 06:12:26;;;;;;;4.90;3.03;;;;;;;;;;4823045;29;20056;-96
2021/08/18 06:14:57;;;;;;;4.80;2.85;;;;;;;;;;4825112;29;20061;-94
2021/08/18 06:17:26;;;;;;;6.38;3.42;;;;;;;;;;4852062;29;20056;-96
2021/08/18 06:19:52;;;;;;;4.85;2.75;;;;;;;;;;4851909;29;20065;-96
2021/08/18 06:22:20;;;;;;;6.07;3.15;;;;;;;;;;4859083;29;20073;-93
2021/08/18 06:24:55;;;;;;;3.85;2.92;;;;;;;;;;4864174;29;20061;-93
2021/08/18 06:31:03;;;;;;;5.53;3.10;;;;;;;;;;4829170;29;20052;-96
2021/08/18 06:34:38;;;;;;;4.05;2.92;;;;;;;;;;4780066;29;20058;-95
2021/08/18 06:37:07;;;;;;;4.15;2.80;;;;;;;;;;4781999;29;20112;-94
2021/08/18 06:40:23;;;;;;;4.35;2.65;;;;;;;;;;4834657;29;20131;-96
2021/08/18 06:43:46;;;;;;;4.72;2.70;;;;;;;;;;4737727;29;20061;-95
2021/08/18 06:46:34;;;;;;;5.63;2.83;;;;;;;;;;4681800;30;20087;-94
2021/08/18 06:49:25;;;;;;;5.72;3.33;;;;;;;;;;4732798;30;20045;-96
2021/08/18 06:51:55;;;;;;;6.13;2.92;;;;;;;;;;4709791;30;20087;-96
2021/08/18 06:54:30;;;;;;;4.75;2.85;;;;;;;;;;4740908;30;20055;-94
2021/08/18 06:57:31;;;;;;;5.15;2.67;;;;;;;;;;4700876;30;20040;-93
2021/08/18 07:00:08;;;;;;;5.32;2.67;;;;;;;;;;4716778;30;20076;-94
2021/08/18 07:02:55;;;;;;;4.90;2.90;;;;;;;;;;4726409;30;20057;-96
2021/08/18 07:05:34;;;;;;;5.88;2.75;;;;;;;;;;4690194;30;20196;-96
2021/08/18 07:08:00;;;;;;;3.85;2.72;;;;;;;;;;4735292;30;20060;-96
2021/08/18 07:10:27;;;;;;;4.30;2.80;;;;;;;;;;4723307;30;20052;-96
2021/08/18 07:12:53;;;;;;;5.22;2.80;;;;;;;;;;4744464;30;20080;-96
2021/08/18 07:15:21;;;;;;;5.32;3.08;;;;;;;;;;4720152;30;20056;-95
2021/08/18 07:17:48;;;;;;;6.55;3.10;;;;;;;;;;4707540;30;20111;-94
2021/08/18 07:20:17;;;;;;;5.38;2.92;;;;;;;;;;4748152;30;20060;-95
2021/08/18 07:22:45;;;;;;;5.75;3.10;;;;;;;;;;4756601;29;20054;-96
2021/08/18 07:25:14;;;;;;;5.20;3.17;;;;;;;;;;4810942;29;20062;-96
2021/08/18 07:27:43;;;;;;;4.95;2.70;;;;;;;;;;4810318;29;20050;-96
2021/08/18 07:30:09;;;;;;;6.85;3.53;;;;;;;;;;4829597;29;20110;-96
2021/08/18 07:32:54;;;;;;;;;;;;;;;;;;4789875;29;20547;-95
2021/08/18 07:35:21;;;;;;;4.50;2.80;;;;;;;;;;4791702;29;19940;-96
2021/08/18 07:37:48;;;;;;;4.80;2.85;;;;;;;;;;4829411;29;20142;-92
2021/08/18 07:40:14;;;;;;;6.80;3.20;;;;;;;;;;4814356;29;20050;-95
2021/08/18 07:42:40;;;;;;;6.07;2.88;;;;;;;;;;4843377;29;20079;-96
2021/08/18 07:45:07;;;;;;;5.07;3.03;;;;;;;;;;4874803;29;20592;-96
2021/08/18 08:11:24;;;;;;;;;;;;;;;;;;;;;
2021/08/18 08:35:21;;;;;;;5.38;3.13;;;;;;;;;;4819007;29;20047;-94
2021/08/18 08:37:51;;;;;;;6.28;3.30;;;;;;;;;;4859413;29;20217;-95
2021/08/18 08:40:20;;;;;;;9.05;4.07;;;;;;;;;;4847831;29;20099;-93
2021/08/18 08:42:55;;;;;;;6.50;2.92;;;;;;;;;;4844619;29;20110;-94
2021/08/18 08:45:21;;;;;;;4.47;3.20;;;;;;;;;;4932412;28;20050;-92
2021/08/18 08:47:49;;;;;;;6.72;3.35;;;;;;;;;;5036862;28;20154;-94
2021/08/18 08:50:16;;;;;;;4.72;3.00;;;;;;;;;;5106001;28;20054;-92
2021/08/18 08:52:42;;;;;;;5.90;3.65;;;;;;;;;;5099076;28;20411;-91
2021/08/18 08:55:08;;;;;;;4.95;3.65;;;;;;;;;;5104436;28;20047;-91
2021/08/18 08:57:52;;;;;;;7.35;3.67;;;;;;;;;;5104021;28;20056;-93
2021/08/18 09:00:19;;;;;;;6.22;3.30;;;;;;;;;;5111840;27;20050;-92
2021/08/18 09:02:47;;;;;;;6.10;4.43;;;;;;;;;;5104416;28;20052;-94
2021/08/18 09:05:24;;;;;;;6.30;4.25;;;;;;;;;;5101084;28;20055;-93
2021/08/18 09:07:59;;;;;;;7.95;4.53;;;;;;;;;;5062830;28;20052;-94
2021/08/18 09:10:29;;;;;;;6.88;4.47;;;;;;;;;;5106062;28;20101;-94
2021/08/18 09:13:10;;;;;;;8.48;5.43;;;;;;;;;;5120030;27;20049;-93
2021/08/18 09:15:37;;;;;;;7.35;5.00;;;;;;;;;;5075311;28;20044;-94
2021/08/18 09:18:03;;;;;;;8.02;5.30;;;;;;;;;;5088223;28;20050;-95
2021/08/18 09:20:29;;;;;;;7.63;5.53;;;;;;;;;;5107672;28;20429;-93
2021/08/18 09:22:57;;;;;;;8.98;5.53;;;;;;;;;;5096755;28;20105;-88
2021/08/18 09:25:24;;;;;;;8.88;5.38;;;;;;;;;;5119735;27;20043;-89
2021/08/18 09:27:50;;;;;;;7.95;6.50;;;;;;;;;;5107542;28;20062;-91
2021/08/18 09:30:19;;;;;;;8.73;6.05;;;;;;;;;;5102831;28;20047;-93
2021/08/18 09:32:45;;;;;;;9.10;6.35;;;;;;;;;;5106329;28;20055;-90
2021/08/18 09:35:15;;;;;;;9.00;6.88;;;;;;;;;;5102233;28;20056;-90
2021/08/18 09:37:45;;;;;;;7.97;6.68;;;;;;;;;;5098928;28;20044;-87
2021/08/18 09:40:23;;;;;;;9.30;7.22;;;;;;;;;;5094642;28;20087;-93
2021/08/18 09:42:49;;;;;;;9.45;6.63;;;;;;;;;;5106873;28;20054;-92
2021/08/18 09:45:26;;;;;;;10.85;7.82;;;;;;;;;;5090523;28;20145;-89
2021/08/18 09:48:06;;;;;;;12.75;8.60;;;;;;;;;;5079092;28;20495;-91
2021/08/18 09:50:40;;;;;;;12.10;8.13;;;;;;;;;;5078311;28;20541;-91
2021/08/18 09:53:26;;;;;;;10.13;7.07;;;;;;;;;;5090640;28;22156;-92
2021/08/18 09:56:02;;;;;;;10.68;8.73;;;;;;;;;;5076702;28;20059;-94
2021/08/18 09:58:35;;;;;;;11.13;7.97;;;;;;;;;;5057268;28;20071;-95
2021/08/18 10:01:17;;;;;;;11.85;7.68;;;;;;;;;;5077742;27;20047;-94
2021/08/18 10:03:53;;;;;;;10.82;8.35;;;;;;;;;;4986187;28;20054;-95
2021/08/18 10:06:20;;;;;;;11.80;9.32;;;;;;;;;;5083862;27;20504;-93
2021/08/18 10:08:49;;;;;;;12.18;9.63;;;;;;;;;;5078358;28;20044;-91
2021/08/18 10:11:44;;;;;;;12.57;9.85;;;;;;;;;;4989306;28;20515;-93
2021/08/18 10:14:34;;;;;;;12.98;9.27;;;;;;;;;;4837933;28;20070;-92
2021/08/18 10:17:03;;;;;;;13.90;9.13;;;;;;;;;;4914008;28;20046;-90
2021/08/18 10:19:38;;;;;;;13.77;8.70;;;;;;;;;;4966597;28;20052;-94
2021/08/18 10:22:16;;;;;;;13.13;8.45;;;;;;;;;;4951027;28;20125;-96
2021/08/18 10:24:43;;;;;;;10.32;7.10;;;;;;;;;;5027536;27;20059;-93
2021/08/18 10:27:09;;;;;;;12.50;7.45;;;;;;;;;;5034451;28;20245;-93
2021/08/18 10:29:37;;;;;;;9.60;7.07;;;;;;;;;;5037867;28;20487;-91
2021/08/18 10:32:10;;;;;;;11.75;8.35;;;;;;;;;;5074272;27;20529;-90
2021/08/18 10:34:37;;;;;;;11.63;7.68;;;;;;;;;;5091674;27;20066;-87
2021/08/18 10:37:05;;;;;;;12.90;8.18;;;;;;;;;;5093923;28;20052;-87
2021/08/18 10:39:36;;;;;;;11.65;7.88;;;;;;;;;;5084487;28;20211;-87
2021/08/18 10:42:03;;;;;;;9.57;7.30;;;;;;;;;;5085780;28;20449;-90
2021/08/18 10:44:35;;;;;;;11.57;7.43;;;;;;;;;;5100904;27;20189;-88
2021/08/18 10:47:17;;;;;;;11.57;7.10;;;;;;;;;;5104632;27;20059;-89
2021/08/18 10:49:45;;;;;;;11.82;6.55;;;;;;;;;;5075680;28;20048;-88
2021/08/18 10:52:11;;;;;;;13.13;7.80;;;;;;;;;;5063991;28;20114;-88
2021/08/18 10:54:41;;;;;;;13.43;7.90;;;;;;;;;;5074222;28;20449;-88
2021/08/18 10:57:27;;;;;;;8.75;5.97;;;;;;;;;;5073089;27;20082;-90
2021/08/18 10:59:53;;;;;;;10.30;6.22;;;;;;;;;;5074689;28;20059;-93
2021/08/18 11:02:38;;;;;;;10.32;6.05;;;;;;;;;;5088683;27;20430;-88
2021/08/18 11:05:14;;;;;;;7.72;6.03;;;;;;;;;;5089656;28;20047;-91
2021/08/18 11:07:59;;;;;;;8.38;5.60;;;;;;;;;;5071800;28;20060;-91
2021/08/18 11:10:25;;;;;;;11.00;6.38;;;;;;;;;;5063426;28;20056;-93
2021/08/18 11:12:55;;;;;;;8.85;6.00;;;;;;;;;;5071561;28;20045;-89
2021/08/18 11:15:42;;;;;;;8.50;6.07;;;;;;;;;;5038466;28;20054;-95
2021/08/18 11:18:12;;;;;;;11.98;6.55;;;;;;;;;;4953773;28;20078;-94
2021/08/18 11:20:40;;;;;;;8.55;6.07;;;;;;;;;;5010903;28;20058;-95
2021/08/18 11:23:07;;;;;;;11.60;6.53;;;;;;;;;;4981409;28;20060;-95
2021/08/18 11:25:43;;;;;;;8.23;6.50;;;;;;;;;;4984701;28;20053;-94
2021/08/18 11:28:35;;;;;;;10.68;6.78;;;;;;;;;;4976488;28;20089;-95
2021/08/18 11:31:16;;;;;;;10.90;7.20;;;;;;;;;;4961263;28;20158;-95
2021/08/18 11:33:52;;;;;;;10.10;7.40;;;;;;;;;;4937381;28;20510;-95
2021/08/18 11:36:24;;;;;;;9.27;7.00;;;;;;;;;;4954156;28;20057;-94
2021/08/18 11:38:59;;;;;;;12.70;8.35;;;;;;;;;;4961492;28;20561;-95
2021/08/18 11:41:40;;;;;;;13.77;9.38;;;;;;;;;;4971663;28;20103;-96
2021/08/18 11:44:28;;;;;;;14.13;9.10;;;;;;;;;;4964479;28;20181;-96
2021/08/18 11:47:00;;;;;;;;;;;;;;;;;;4911515;28;20219;-95
2021/08/18 11:49:43;;;;;;;15.43;8.45;;;;;;;;;;4926301;28;19953;-93
2021/08/18 11:52:28;;;;;;;;;;;;;;;;;;3144131;29;68344733;-92
2021/08/18 11:55:16;;;;;;;13.52;10.32;;;;;;;;;;5054003;27;1364625;-95
2021/08/18 11:57:44;;;;;;;11.90;8.73;;;;;;;;;;5078454;27;20150;-95
2021/08/18 12:00:20;;;;;;;13.45;8.60;;;;;;;;;;5082854;28;20513;-95
2021/08/18 12:02:52;;;;;;;11.27;9.30;;;;;;;;;;5056960;27;20092;-93
2021/08/18 12:08:36;;;;;;;13.40;10.65;;;;;;;;;;4959426;28;20041;-94
2021/08/18 12:11:07;;;;;;;13.23;8.88;;;;;;;;;;3145809;28;38106770;-93
2021/08/18 12:24:29;;;;;;;14.63;10.32;;;;;;;;;;6045750;22;20383;-93
2021/08/18 12:27:02;;;;;;;12.13;10.18;;;;;;;;;;5915251;23;20367;-94
2021/08/18 12:29:48;;;;;;;11.65;7.53;;;;;;;;;;4961890;27;1324457;-96
2021/08/18 12:32:31;;;;;;;11.18;8.57;;;;;;;;;;4936971;28;20162;-94
2021/08/18 12:35:49;;;;;;;11.93;8.82;;;;;;;;;;4937842;27;1441638;-94
2021/08/18 12:38:27;;;;;;;13.75;9.90;;;;;;;;;;4976664;28;20052;-94
2021/08/18 12:51:45;;;;;;;11.32;9.13;;;;;;;;;;6185783;21;1669334;-95
2021/08/18 12:54:23;;;;;;;13.35;9.63;;;;;;;;;;6062580;23;20030;-95
2021/08/18 13:11:04;;;;;;;12.73;5.63;;;;;;;;;;6029663;22;1386557;-96
2021/08/18 13:17:13;;;;;;;12.82;8.93;;;;;;;;;;4911360;27;2399013;-95
2021/08/18 13:19:59;;;;;;;13.90;8.13;;;;;;;;;;4894906;28;20074;-96
2021/08/18 13:43:56;;;;;;;11.30;7.60;;;;;;;;;;5853296;22;5482769;-94
2021/08/18 13:48:37;;;;;;;9.23;7.72;;;;;;;;;;5747948;23;78206712;-91
2021/08/18 14:01:46;;;;;;;9.02;6.63;;;;;;;;;;6027769;22;1451558;-93
2021/08/18 14:04:34;;;;;;;11.32;6.75;;;;;;;;;;5902475;23;28934;-92
2021/08/18 14:07:25;;;;;;;10.00;7.07;;;;;;;;;;4997709;28;20138;-95
2021/08/18 14:09:52;;;;;;;8.07;6.80;;;;;;;;;;4988212;28;20057;-95
2021/08/18 14:12:18;;;;;;;9.50;6.93;;;;;;;;;;4991968;28;20500;-93
2021/08/18 14:14:45;;;;;;;7.20;6.30;;;;;;;;;;5033499;28;20107;-94
2021/08/18 14:17:12;;;;;;;10.38;7.43;;;;;;;;;;4997752;28;20071;-96
2021/08/18 14:19:44;;;;;;;8.90;6.90;;;;;;;;;;5027001;28;20110;-95
2021/08/18 14:22:13;;;;;;;8.85;6.00;;;;;;;;;;5031245;28;20057;-94
2021/08/18 14:24:39;;;;;;;7.60;6.40;;;;;;;;;;5045669;28;20469;-95
2021/08/18 14:27:06;;;;;;;8.85;6.80;;;;;;;;;;5018925;28;20049;-95
2021/08/18 14:29:35;;;;;;;9.88;6.22;;;;;;;;;;4953212;28;20092;-96
2021/08/18 14:32:02;;;;;;;9.80;5.57;;;;;;;;;;4985105;28;20147;-95
2021/08/18 14:34:31;;;;;;;8.98;6.60;;;;;;;;;;5003371;28;20148;-96
2021/08/18 14:37:01;;;;;;;8.05;6.45;;;;;;;;;;5022283;28;20124;-96
2021/08/18 14:39:32;;;;;;;10.27;6.40;;;;;;;;;;4988845;28;20065;-96
2021/08/18 14:42:01;;;;;;;7.55;6.35;;;;;;;;;;4994787;28;20053;-94
2021/08/18 14:44:49;;;;;;;10.05;6.45;;;;;;;;;;4896877;28;20059;-94
2021/08/18 14:47:17;;;;;;;10.35;7.28;;;;;;;;;;4936146;28;20074;-96
2021/08/18 14:49:45;;;;;;;9.95;6.65;;;;;;;;;;4891406;28;20055;-93
2021/08/18 14:52:19;;;;;;;11.00;7.40;;;;;;;;;;4922614;28;20055;-96
2021/08/18 14:54:46;;;;;;;8.00;6.50;;;;;;;;;;4935527;28;20054;-95
2021/08/18 14:57:15;;;;;;;10.98;5.68;;;;;;;;;;4941780;28;20088;-95
2021/08/18 14:59:41;;;;;;;7.80;6.18;;;;;;;;;;4957987;28;20058;-94
2021/08/18 15:02:08;;;;;;;8.25;6.18;;;;;;;;;;4957791;28;22081;-96
2021/08/18 15:04:40;;;;;;;10.50;6.70;;;;;;;;;;4915852;28;20601;-96
2021/08/18 15:07:19;;;;;;;8.02;6.30;;;;;;;;;;4897378;28;20133;-94
2021/08/18 15:09:45;;;;;;;9.10;6.65;;;;;;;;;;4928286;28;20129;-93
2021/08/18 15:12:14;;;;;;;10.88;6.95;;;;;;;;;;5002300;28;20572;-93
2021/08/18 15:14:43;;;;;;;10.88;6.97;;;;;;;;;;4965701;28;20054;-92
2021/08/18 15:17:09;;;;;;;10.38;6.63;;;;;;;;;;4923886;28;20063;-93
2021/08/18 15:19:52;;;;;;;9.23;7.35;;;;;;;;;;5027322;27;20424;-92
2021/08/18 15:22:19;;;;;;;11.32;7.78;;;;;;;;;;4983576;28;20883;-92
2021/08/18 15:24:50;;;;;;;8.98;7.20;;;;;;;;;;4961695;28;20049;-93
2021/08/18 15:27:16;;;;;;;10.05;7.13;;;;;;;;;;4892326;28;20147;-93
2021/08/18 15:29:56;;;;;;;9.15;7.35;;;;;;;;;;5079407;27;20465;-92
2021/08/18 15:32:23;;;;;;;12.20;7.45;;;;;;;;;;5076521;28;20076;-91
2021/08/18 15:34:50;;;;;;;10.60;7.50;;;;;;;;;;5068150;28;20249;-90
2021/08/18 15:37:19;;;;;;;12.27;7.68;;;;;;;;;;5093033;28;20045;-93
2021/08/18 15:39:46;;;;;;;11.38;8.02;;;;;;;;;;5075282;28;20052;-92
2021/08/18 15:42:16;;;;;;;11.10;8.07;;;;;;;;;;5094158;28;20525;-90
2021/08/18 15:44:43;;;;;;;11.65;8.93;;;;;;;;;;4986212;28;20832;-93
2021/08/18 15:47:14;;;;;;;13.13;8.18;;;;;;;;;;4948247;28;20058;-91
2021/08/18 15:49:41;;;;;;;10.85;8.20;;;;;;;;;;4949629;28;20875;-93
2021/08/18 15:52:21;;;;;;;12.82;8.77;;;;;;;;;;5036132;27;20506;-90
2021/08/18 15:54:48;;;;;;;10.60;8.40;;;;;;;;;;5019732;28;20052;-90
2021/08/18 15:57:14;;;;;;;12.02;8.40;;;;;;;;;;4933252;28;20055;-90
2021/08/18 15:59:41;;;;;;;10.80;8.55;;;;;;;;;;5025553;28;20056;-91
2021/08/18 16:02:40;;;;;;;10.93;8.65;;;;;;;;;;5068409;28;20096;-93
2021/08/18 16:05:10;;;;;;;12.07;8.82;;;;;;;;;;4928456;28;20057;-90
2021/08/18 16:10:03;;;;;;;13.63;10.07;;;;;;;;;;5028675;27;20424;-91
2021/08/18 16:12:29;;;;;;;12.30;9.32;;;;;;;;;;4990819;28;20056;-90
2021/08/18 16:14:56;;;;;;;12.85;9.88;;;;;;;;;;4909448;28;20622;-89
2021/08/18 16:17:26;;;;;;;11.93;9.27;;;;;;;;;;4882835;28;415126;-91
2021/08/18 16:20:07;;;;;;;11.38;7.80;;;;;;;;;;4963238;27;1410629;-90
2021/08/18 16:22:35;;;;;;;8.60;6.40;;;;;;;;;;4959574;28;20606;-88
2021/08/18 16:25:22;;;;;;;9.07;6.03;;;;;;;;;;5008136;27;20431;-93
2021/08/18 16:27:50;;;;;;;10.15;6.78;;;;;;;;;;4958354;28;20146;-90
2021/08/18 16:30:16;;;;;;;9.98;6.40;;;;;;;;;;4920531;28;20042;-91
2021/08/18 16:33:20;;;;;;;6.95;5.13;;;;;;;;;;4970880;28;20143;-89
2021/08/18 16:35:57;;;;;;;7.05;5.43;;;;;;;;;;4885838;28;20052;-91
2021/08/18 16:38:44;;;;;;;8.27;5.25;;;;;;;;;;5051133;27;20471;-90
2021/08/18 16:41:14;;;;;;;8.88;5.93;;;;;;;;;;5071754;28;20182;-89
2021/08/18 16:43:40;;;;;;;8.05;5.95;;;;;;;;;;5063961;28;20141;-91
2021/08/18 16:46:19;;;;;;;8.82;4.35;;;;;;;;;;5005018;28;20054;-92
2021/08/18 16:48:48;;;;;;;11.35;6.28;;;;;;;;;;4931450;28;20115;-93
2021/08/18 16:52:04;;;;;;;8.20;5.50;;;;;;;;;;5015398;27;20526;-91
2021/08/18 16:54:34;;;;;;;9.52;5.05;;;;;;;;;;5026963;28;20075;-91
2021/08/18 16:57:02;;;;;;;6.10;3.95;;;;;;;;;;5053788;28;20136;-92
2021/08/18 16:59:30;;;;;;;9.68;4.70;;;;;;;;;;5021049;28;20052;-90
2021/08/18 17:02:02;;;;;;;6.57;4.93;;;;;;;;;;5039635;28;20049;-92
2021/08/18 17:04:30;;;;;;;8.77;4.80;;;;;;;;;;5032190;28;20048;-93
2021/08/18 17:06:56;;;;;;;7.70;5.10;;;;;;;;;;5068129;28;20056;-96
2021/08/18 17:09:22;;;;;;;6.85;4.50;;;;;;;;;;5059157;28;20569;-94
2021/08/18 17:11:49;;;;;;;6.75;5.20;;;;;;;;;;5086346;28;20063;-93